Time;durP1;ratioP1;P1;durP2;ratioP2;P2;SDS_P1;SDS_P2;PMS_P1;PMS_P2;Temp;Humidity;BMP_temperature;BMP_pressure;BME280_temperature;BME280_humidity;BME280_pressure;Samples;Min_cycle;Max_cycle;Signal;HPM_P1;HPM_P2
2023/09/23 00:02:46;;;;;;;4.30;1.63;;;13.50;99.90;;;;;;5150689;27;20479;-80
2023/09/23 00:05:35;;;;;;;5.28;1.90;;;13.50;99.90;;;;;;5151133;27;20119;-75
2023/09/23 00:08:21;;;;;;;5.80;1.98;;;13.50;99.90;;;;;;5137910;27;20090;-73
2023/09/23 00:11:08;;;;;;;4.85;1.88;;;13.50;99.90;;;;;;5151187;27;20046;-78
2023/09/23 00:13:54;;;;;;;6.05;2.28;;;13.50;99.90;;;;;;5150484;27;20054;-77
2023/09/23 00:16:40;;;;;;;3.90;2.03;;;13.50;99.90;;;;;;5150120;27;20042;-81
2023/09/23 00:19:26;;;;;;;5.32;2.30;;;13.50;99.90;;;;;;5131670;27;20046;-79
2023/09/23 00:22:12;;;;;;;7.75;3.17;;;13.50;99.90;;;;;;5151925;27;20047;-80
2023/09/23 00:24:59;;;;;;;5.13;2.83;;;13.40;99.90;;;;;;5133423;27;20063;-80
2023/09/23 00:27:48;;;;;;;5.68;2.40;;;13.40;99.90;;;;;;5149956;27;20654;-77
2023/09/23 00:30:35;;;;;;;4.75;2.17;;;13.40;99.90;;;;;;5150585;27;20050;-76
2023/09/23 00:33:21;;;;;;;7.15;2.08;;;13.40;99.90;;;;;;5138068;27;20078;-79
2023/09/23 00:36:09;;;;;;;7.25;2.13;;;13.30;99.90;;;;;;5151675;27;20050;-77
2023/09/23 00:38:56;;;;;;;5.43;2.50;;;13.30;99.90;;;;;;5152129;27;20050;-81
2023/09/23 00:41:42;;;;;;;5.93;2.00;;;13.30;99.90;;;;;;5151595;27;20513;-81
2023/09/23 00:44:28;;;;;;;4.20;1.98;;;13.30;99.90;;;;;;5151633;27;20076;-76
2023/09/23 00:47:15;;;;;;;6.68;1.40;;;13.30;99.90;;;;;;5151692;27;20406;-78
2023/09/23 00:50:22;;;;;;;5.05;1.52;;;13.20;99.90;;;;;;5152303;27;20106;-75
2023/09/23 00:53:08;;;;;;;3.08;1.60;;;13.20;99.90;;;;;;5150342;27;20082;-73
2023/09/23 00:55:55;;;;;;;2.58;1.10;;;13.20;99.90;;;;;;5137248;27;20129;-73
2023/09/23 00:58:42;;;;;;;5.07;1.30;;;13.20;99.90;;;;;;5134547;27;20129;-71
2023/09/23 01:01:28;;;;;;;2.65;1.10;;;13.20;99.90;;;;;;5134709;27;20046;-71
2023/09/23 01:04:15;;;;;;;4.78;1.02;;;13.20;99.90;;;;;;5151092;27;20409;-72
2023/09/23 01:07:02;;;;;;;5.75;1.00;;;13.10;99.90;;;;;;5131762;27;20046;-71
2023/09/23 01:09:48;;;;;;;4.40;1.23;;;13.10;99.90;;;;;;5149900;27;20047;-73
2023/09/23 01:12:34;;;;;;;3.88;1.05;;;13.10;99.90;;;;;;5133722;27;20512;-72
2023/09/23 01:15:22;;;;;;;3.40;1.05;;;13.00;99.90;;;;;;5153219;27;20047;-70
2023/09/23 01:18:08;;;;;;;3.90;1.00;;;13.10;99.90;;;;;;5154641;27;20130;-74
2023/09/23 01:21:00;;;;;;;3.58;1.08;;;13.00;99.90;;;;;;5154033;27;20720;-72
2023/09/23 01:23:46;;;;;;;2.13;0.60;;;13.00;99.90;;;;;;5153823;27;20078;-72
2023/09/23 01:26:34;;;;;;;4.80;1.08;;;13.00;99.90;;;;;;5154241;27;20046;-74
2023/09/23 01:29:22;;;;;;;2.30;0.90;;;13.00;99.90;;;;;;5155094;27;20133;-72
2023/09/23 01:32:46;;;;;;;2.70;0.85;;;13.00;99.90;;;;;;5153989;27;20057;-71
2023/09/23 01:35:32;;;;;;;2.10;0.80;;;13.00;99.90;;;;;;5147100;27;20069;-74
2023/09/23 01:38:18;;;;;;;3.15;0.75;;;12.90;99.90;;;;;;5131367;27;20146;-73
2023/09/23 01:41:04;;;;;;;4.15;1.35;;;12.90;99.90;;;;;;5152165;27;20062;-79
2023/09/23 01:43:50;;;;;;;3.83;0.80;;;12.80;99.90;;;;;;5153847;27;20113;-83
2023/09/23 01:46:37;;;;;;;3.50;0.80;;;12.80;99.90;;;;;;5137092;27;20096;-73
2023/09/23 01:49:23;;;;;;;3.05;0.82;;;12.70;99.90;;;;;;5137758;27;20413;-78
2023/09/23 01:52:09;;;;;;;1.80;0.60;;;12.70;99.90;;;;;;5135013;27;20546;-72
2023/09/23 01:54:55;;;;;;;2.92;0.90;;;12.70;99.90;;;;;;5154092;27;20073;-73
2023/09/23 01:57:41;;;;;;;2.88;0.70;;;12.60;99.90;;;;;;5145424;27;20121;-71
2023/09/23 02:00:29;;;;;;;3.67;0.68;;;12.60;99.90;;;;;;5152805;27;20133;-71
2023/09/23 02:03:15;;;;;;;5.05;0.88;;;12.60;99.90;;;;;;5152856;27;20043;-72
2023/09/23 02:06:01;;;;;;;3.05;0.90;;;12.60;99.90;;;;;;5153032;27;20143;-80
2023/09/23 02:08:47;;;;;;;2.33;1.00;;;12.60;99.90;;;;;;5134323;27;20054;-75
2023/09/23 02:11:33;;;;;;;3.88;1.05;;;12.60;99.90;;;;;;5152662;27;20078;-75
2023/09/23 02:14:19;;;;;;;3.20;1.40;;;12.50;99.90;;;;;;5153179;27;20482;-75
2023/09/23 02:17:05;;;;;;;4.05;1.58;;;12.60;99.90;;;;;;5152222;27;20554;-75
2023/09/23 02:19:52;;;;;;;4.97;1.88;;;12.50;99.90;;;;;;5152461;27;20055;-78
2023/09/23 02:22:38;;;;;;;6.53;2.08;;;12.50;99.90;;;;;;5120177;27;20047;-79
2023/09/23 02:25:25;;;;;;;5.60;2.33;;;12.50;99.90;;;;;;5154348;27;20046;-80
2023/09/23 02:28:11;;;;;;;4.18;2.05;;;12.50;99.90;;;;;;5152797;27;20080;-82
2023/09/23 02:30:57;;;;;;;6.18;2.78;;;12.50;99.90;;;;;;5152011;27;20383;-76
2023/09/23 02:33:44;;;;;;;6.07;2.47;;;12.50;99.90;;;;;;5144783;27;20569;-83
2023/09/23 02:36:30;;;;;;;5.40;2.95;;;12.50;99.90;;;;;;5133581;27;20462;-81
2023/09/23 02:39:17;;;;;;;5.68;3.17;;;12.50;99.90;;;;;;5152223;27;20038;-81
2023/09/23 02:42:05;;;;;;;6.18;3.50;;;12.50;99.90;;;;;;5151801;27;20137;-77
2023/09/23 02:44:52;;;;;;;8.10;4.25;;;12.50;99.90;;;;;;5153415;27;20050;-77
2023/09/23 02:47:39;;;;;;;9.10;4.70;;;12.40;99.90;;;;;;5151490;27;20078;-74
2023/09/23 02:50:26;;;;;;;9.05;4.78;;;12.50;99.90;;;;;;5151220;27;20471;-76
2023/09/23 02:53:12;;;;;;;6.28;4.80;;;12.40;99.90;;;;;;5151505;27;20051;-74
2023/09/23 02:56:08;;;;;;;9.98;5.40;;;12.50;99.90;;;;;;5133948;27;20062;-73
2023/09/23 02:58:56;;;;;;;9.35;5.88;;;12.40;99.90;;;;;;5133293;27;20065;-75
2023/09/23 03:01:45;;;;;;;9.90;5.97;;;12.40;99.90;;;;;;5134245;27;20082;-75
2023/09/23 03:04:33;;;;;;;11.68;6.00;;;12.40;99.90;;;;;;5133766;27;20042;-75
2023/09/23 03:07:19;;;;;;;10.65;6.03;;;12.50;99.90;;;;;;5134420;27;20054;-75
2023/09/23 03:10:12;;;;;;;12.50;6.10;;;12.50;99.90;;;;;;5153280;27;20061;-75
2023/09/23 03:13:04;;;;;;;11.00;6.35;;;12.50;99.90;;;;;;5151220;27;20043;-80
2023/09/23 03:15:58;;;;;;;10.77;6.40;;;12.50;99.90;;;;;;5151878;27;20086;-75
2023/09/23 03:21:50;;;;;;;9.80;6.63;;;12.50;99.90;;;;;;5133277;27;20052;-75
2023/09/23 03:24:36;;;;;;;9.60;6.68;;;12.40;99.90;;;;;;5152044;27;20046;-76
2023/09/23 03:27:25;;;;;;;9.43;6.78;;;12.50;99.90;;;;;;5153054;27;20034;-76
2023/09/23 03:30:12;;;;;;;9.80;6.57;;;12.50;99.90;;;;;;5151948;27;20054;-75
2023/09/23 03:32:58;;;;;;;13.80;7.38;;;12.50;99.90;;;;;;5151454;27;20046;-77
2023/09/23 03:35:44;;;;;;;12.38;6.90;;;12.50;99.90;;;;;;5150424;27;20046;-77
2023/09/23 03:38:32;;;;;;;13.60;7.82;;;12.50;99.90;;;;;;5132588;27;20046;-79
2023/09/23 03:41:18;;;;;;;13.18;7.20;;;12.50;99.90;;;;;;5151486;27;20108;-74
2023/09/23 03:44:05;;;;;;;10.38;6.65;;;12.50;99.90;;;;;;5150264;27;20068;-81
2023/09/23 03:46:52;;;;;;;10.77;7.20;;;12.50;99.90;;;;;;5150129;27;20058;-80
2023/09/23 03:49:38;;;;;;;14.82;7.50;;;12.50;99.90;;;;;;5131937;27;20089;-81
2023/09/23 03:52:25;;;;;;;13.93;6.68;;;12.50;99.90;;;;;;5151052;27;20049;-80
2023/09/23 03:55:11;;;;;;;12.63;7.55;;;12.50;99.90;;;;;;5133577;27;20039;-76
2023/09/23 03:57:57;;;;;;;11.90;7.18;;;12.50;99.90;;;;;;5151139;27;20046;-75
2023/09/23 04:00:44;;;;;;;13.63;7.03;;;12.50;99.90;;;;;;5150637;27;20058;-72
2023/09/23 04:03:34;;;;;;;13.98;7.65;;;12.50;99.90;;;;;;5150756;27;20053;-78
2023/09/23 04:06:20;;;;;;;13.77;8.02;;;12.50;99.90;;;;;;5150652;27;20050;-74
2023/09/23 04:09:09;;;;;;;11.75;7.80;;;12.50;99.90;;;;;;5150094;27;20573;-80
2023/09/23 04:11:55;;;;;;;16.92;8.20;;;12.40;99.90;;;;;;5132635;27;20047;-76
2023/09/23 04:14:41;;;;;;;12.82;7.10;;;12.40;99.90;;;;;;5127409;27;20387;-78
2023/09/23 04:17:27;;;;;;;12.63;7.25;;;12.40;99.90;;;;;;5136082;27;20046;-73
2023/09/23 04:20:14;;;;;;;15.10;7.75;;;12.30;99.90;;;;;;5151388;27;20143;-73
2023/09/23 04:23:00;;;;;;;12.93;7.70;;;12.30;99.90;;;;;;5150365;27;20053;-74
2023/09/23 04:25:49;;;;;;;12.00;8.30;;;12.30;99.90;;;;;;5150753;27;20054;-75
2023/09/23 04:28:36;;;;;;;13.05;6.93;;;12.20;99.90;;;;;;5151194;27;20046;-74
2023/09/23 04:31:24;;;;;;;12.27;6.65;;;12.20;99.90;;;;;;5152021;27;20050;-74
2023/09/23 04:34:10;;;;;;;13.50;6.78;;;12.30;99.90;;;;;;5151367;27;20043;-78
2023/09/23 04:36:56;;;;;;;12.35;6.35;;;12.30;99.90;;;;;;5150785;27;20103;-81
2023/09/23 04:39:42;;;;;;;8.30;6.43;;;12.30;99.90;;;;;;5143314;27;20089;-76
2023/09/23 04:42:28;;;;;;;13.32;6.13;;;12.30;99.90;;;;;;5150359;27;20141;-76
2023/09/23 04:45:15;;;;;;;11.38;6.15;;;12.20;99.90;;;;;;5132146;27;20042;-75
2023/09/23 04:48:01;;;;;;;10.13;6.53;;;12.20;99.90;;;;;;5154734;27;20053;-75
2023/09/23 04:50:47;;;;;;;12.25;6.47;;;12.20;99.90;;;;;;5154382;27;20533;-73
2023/09/23 04:53:33;;;;;;;8.00;5.85;;;12.20;99.90;;;;;;5155041;27;20043;-77
2023/09/23 04:56:19;;;;;;;10.65;6.50;;;12.10;99.90;;;;;;5135999;27;20058;-73
2023/09/23 04:59:05;;;;;;;11.88;7.63;;;12.10;99.90;;;;;;5155256;27;20046;-81
2023/09/23 05:01:51;;;;;;;11.80;7.22;;;12.10;99.90;;;;;;5149046;27;20102;-74
2023/09/23 05:04:37;;;;;;;12.23;7.22;;;12.10;99.90;;;;;;5154896;27;20055;-74
2023/09/23 05:07:26;;;;;;;8.85;6.07;;;12.00;99.90;;;;;;5154121;27;20054;-75
2023/09/23 05:10:13;;;;;;;11.65;6.80;;;12.10;99.90;;;;;;5154096;27;20489;-74
2023/09/23 05:12:59;;;;;;;11.20;7.00;;;12.00;99.90;;;;;;5153771;27;20455;-76
2023/09/23 05:15:45;;;;;;;10.02;6.55;;;12.00;99.90;;;;;;5136333;27;20050;-77
2023/09/23 05:18:31;;;;;;;10.55;6.55;;;12.00;99.90;;;;;;5121365;27;20080;-76
2023/09/23 05:21:18;;;;;;;9.50;6.20;;;12.00;99.90;;;;;;5153928;27;20051;-73
2023/09/23 05:24:06;;;;;;;8.57;5.93;;;12.00;99.90;;;;;;5120717;27;20042;-80
2023/09/23 05:26:56;;;;;;;9.02;7.10;;;12.00;99.90;;;;;;5153724;27;20046;-74
2023/09/23 05:29:50;;;;;;;11.65;6.68;;;11.90;99.90;;;;;;5153089;27;20051;-73
2023/09/23 05:32:37;;;;;;;11.57;6.90;;;11.90;99.90;;;;;;5153102;27;20043;-73
2023/09/23 05:35:24;;;;;;;12.77;7.10;;;12.00;99.90;;;;;;5156524;27;20151;-75
2023/09/23 05:38:10;;;;;;;11.30;7.60;;;11.90;99.90;;;;;;5157421;27;20096;-73
2023/09/23 05:40:56;;;;;;;8.07;5.93;;;11.90;99.90;;;;;;5153555;27;20088;-75
2023/09/23 05:43:42;;;;;;;11.57;6.68;;;11.80;99.90;;;;;;5139912;27;20047;-78
2023/09/23 05:46:28;;;;;;;10.05;6.80;;;11.80;99.90;;;;;;5152864;27;20051;-76
2023/09/23 05:49:15;;;;;;;10.27;7.65;;;11.80;99.90;;;;;;5152836;27;20051;-79
2023/09/23 05:52:01;;;;;;;13.82;7.93;;;11.70;99.90;;;;;;5153095;27;20043;-73
2023/09/23 05:54:48;;;;;;;10.73;7.03;;;11.70;99.90;;;;;;5138552;27;20129;-76
2023/09/23 05:57:34;;;;;;;14.13;7.88;;;11.70;99.90;;;;;;5153448;27;20099;-76
2023/09/23 06:00:21;;;;;;;9.77;7.45;;;11.70;99.90;;;;;;5137319;27;20085;-74
2023/09/23 06:03:07;;;;;;;11.80;9.13;;;11.70;99.90;;;;;;5134895;27;20069;-75
2023/09/23 06:05:53;;;;;;;14.95;9.07;;;11.70;99.90;;;;;;5153944;27;20074;-77
2023/09/23 06:08:39;;;;;;;12.88;9.07;;;11.80;99.90;;;;;;5133670;27;20098;-76
2023/09/23 06:11:26;;;;;;;12.50;9.15;;;11.80;99.90;;;;;;5154004;27;20050;-74
2023/09/23 06:14:12;;;;;;;15.00;9.60;;;11.80;99.90;;;;;;5120297;27;20467;-73
2023/09/23 06:16:58;;;;;;;14.88;9.38;;;11.80;99.90;;;;;;5152864;27;20055;-77
2023/09/23 06:19:44;;;;;;;11.98;8.45;;;11.90;99.90;;;;;;5152964;27;20043;-80
2023/09/23 06:22:34;;;;;;;16.67;9.68;;;11.90;99.90;;;;;;5152198;27;20043;-75
2023/09/23 06:25:20;;;;;;;14.10;9.15;;;12.00;99.90;;;;;;5152915;27;20118;-74
2023/09/23 06:28:06;;;;;;;12.65;9.25;;;12.10;99.90;;;;;;5152116;27;20046;-81
2023/09/23 06:30:52;;;;;;;15.65;9.27;;;12.10;99.90;;;;;;5153600;27;20133;-76
2023/09/23 06:33:39;;;;;;;13.13;9.52;;;12.20;99.90;;;;;;5139019;27;20167;-79
2023/09/23 06:36:25;;;;;;;11.98;8.57;;;12.30;99.90;;;;;;5153154;27;20043;-78
2023/09/23 06:39:11;;;;;;;11.40;8.57;;;12.40;99.90;;;;;;5139028;27;20046;-80
2023/09/23 06:41:58;;;;;;;12.35;8.68;;;12.40;99.90;;;;;;5153970;27;20054;-78
2023/09/23 06:44:45;;;;;;;12.18;8.98;;;12.50;99.90;;;;;;5153875;27;20196;-74
2023/09/23 06:47:31;;;;;;;10.65;8.52;;;12.60;99.90;;;;;;5151667;27;20482;-74
2023/09/23 06:50:17;;;;;;;14.52;9.30;;;12.70;99.90;;;;;;5138176;27;20047;-74
2023/09/23 06:53:04;;;;;;;14.82;8.70;;;12.80;99.90;;;;;;5153015;27;20058;-75
2023/09/23 06:55:50;;;;;;;13.40;8.55;;;12.90;99.90;;;;;;5152338;27;20130;-76
2023/09/23 06:58:36;;;;;;;12.65;9.02;;;13.00;99.90;;;;;;5150728;27;20506;-75
2023/09/23 07:01:22;;;;;;;13.85;8.52;;;13.00;99.90;;;;;;5132456;27;20520;-79
2023/09/23 07:04:08;;;;;;;13.95;8.43;;;13.10;99.90;;;;;;5138143;27;20047;-74
2023/09/23 07:06:54;;;;;;;10.95;8.25;;;13.30;99.90;;;;;;5135575;27;20486;-77
2023/09/23 07:09:41;;;;;;;9.85;7.50;;;13.40;99.90;;;;;;5118401;27;20055;-74
2023/09/23 07:12:27;;;;;;;11.38;7.35;;;13.60;99.90;;;;;;5151572;27;20556;-78
2023/09/23 07:15:14;;;;;;;12.70;7.80;;;13.80;99.90;;;;;;5151227;27;20051;-76
2023/09/23 07:18:00;;;;;;;12.52;7.55;;;13.80;99.90;;;;;;5151710;27;20466;-80
2023/09/23 07:20:46;;;;;;;11.93;7.88;;;13.90;99.90;;;;;;5119211;27;20108;-78
2023/09/23 07:23:32;;;;;;;10.63;8.05;;;13.90;99.90;;;;;;5133908;27;20509;-74
2023/09/23 07:26:23;;;;;;;10.90;6.57;;;13.90;99.90;;;;;;5119277;27;20137;-76
2023/09/23 07:29:09;;;;;;;13.85;7.40;;;13.90;99.90;;;;;;5151814;27;20524;-75
2023/09/23 07:31:55;;;;;;;8.82;6.28;;;13.90;99.90;;;;;;5151089;27;20046;-77
2023/09/23 07:34:41;;;;;;;13.63;6.80;;;14.00;99.90;;;;;;5132254;27;20111;-77
2023/09/23 07:37:27;;;;;;;9.82;6.60;;;14.00;99.90;;;;;;5132143;27;20146;-84
2023/09/23 07:40:14;;;;;;;11.35;6.53;;;14.00;99.90;;;;;;5151792;27;20054;-78
2023/09/23 07:43:00;;;;;;;11.07;6.30;;;14.00;99.90;;;;;;5132152;27;20039;-76
2023/09/23 07:45:51;;;;;;;10.18;6.40;;;14.10;99.90;;;;;;5132418;27;20138;-76
2023/09/23 07:48:37;;;;;;;11.63;6.05;;;14.20;99.90;;;;;;5150750;27;20138;-74
2023/09/23 07:51:23;;;;;;;8.63;5.60;;;14.40;99.90;;;;;;5150880;27;20418;-77
2023/09/23 07:54:10;;;;;;;11.90;6.03;;;14.50;99.90;;;;;;5151229;27;20042;-78
2023/09/23 07:56:56;;;;;;;10.75;5.82;;;14.50;99.90;;;;;;5150522;27;20058;-76
2023/09/23 07:59:42;;;;;;;8.77;5.63;;;14.50;99.90;;;;;;5132489;27;20050;-78
2023/09/23 08:02:28;;;;;;;11.32;6.85;;;14.50;99.90;;;;;;5150589;27;20089;-78
2023/09/23 08:05:14;;;;;;;10.13;6.15;;;14.60;99.90;;;;;;5150848;27;20053;-78
2023/09/23 08:08:00;;;;;;;8.60;6.20;;;14.70;99.90;;;;;;5150088;27;20050;-78
2023/09/23 08:10:49;;;;;;;9.68;5.53;;;14.80;99.90;;;;;;5150197;27;20050;-81
2023/09/23 08:13:35;;;;;;;9.68;5.70;;;15.00;99.90;;;;;;5150506;27;20103;-81
2023/09/23 08:16:21;;;;;;;11.38;6.13;;;15.00;99.90;;;;;;5131474;27;20051;-77
2023/09/23 08:19:07;;;;;;;8.05;5.68;;;15.20;99.90;;;;;;5150693;27;20494;-76
2023/09/23 08:21:54;;;;;;;7.85;5.80;;;15.20;99.90;;;;;;5152960;27;20577;-75
2023/09/23 08:24:40;;;;;;;7.90;4.80;;;15.30;99.90;;;;;;5155045;27;20075;-73
2023/09/23 08:27:27;;;;;;;9.82;5.25;;;15.30;99.90;;;;;;5135524;27;20047;-76
2023/09/23 08:30:16;;;;;;;7.22;4.15;;;15.50;99.90;;;;;;5135918;27;20129;-76
2023/09/23 08:33:02;;;;;;;7.60;3.22;;;15.70;99.90;;;;;;5155091;27;20042;-76
2023/09/23 08:35:48;;;;;;;8.45;3.17;;;15.70;99.90;;;;;;5153762;27;20047;-76
2023/09/23 08:38:34;;;;;;;5.32;2.45;;;15.80;99.90;;;;;;5136472;27;20567;-82
2023/09/23 08:41:22;;;;;;;7.45;2.20;;;15.80;99.90;;;;;;5155630;27;20054;-79
2023/09/23 08:44:10;;;;;;;5.70;1.55;;;16.00;99.90;;;;;;5156163;27;20082;-75
2023/09/23 08:46:57;;;;;;;5.15;1.42;;;16.20;99.90;;;;;;5154760;27;20393;-76
2023/09/23 08:49:49;;;;;;;4.50;1.38;;;16.40;99.90;;;;;;5154368;27;20054;-77
2023/09/23 08:52:35;;;;;;;4.43;1.20;;;16.60;99.90;;;;;;5154699;27;20046;-81
2023/09/23 08:55:24;;;;;;;5.68;1.50;;;16.60;99.90;;;;;;5155056;27;20050;-82
2023/09/23 08:58:11;;;;;;;4.32;1.35;;;16.70;99.90;;;;;;5156935;27;20110;-81
2023/09/23 09:00:57;;;;;;;6.15;1.50;;;16.80;99.90;;;;;;5156296;27;20066;-79
2023/09/23 09:03:44;;;;;;;4.35;1.60;;;16.90;99.90;;;;;;5137392;27;20058;-82
2023/09/23 09:06:30;;;;;;;6.13;1.50;;;17.10;99.90;;;;;;5155487;27;20478;-81
2023/09/23 09:09:17;;;;;;;2.95;1.25;;;17.40;99.90;;;;;;5154217;27;20054;-80
2023/09/23 09:12:04;;;;;;;5.25;1.55;;;17.60;99.90;;;;;;5155377;27;20087;-84
2023/09/23 09:14:51;;;;;;;3.67;1.30;;;17.70;99.90;;;;;;5154764;27;20050;-83
2023/09/23 09:17:38;;;;;;;5.97;1.33;;;17.60;99.90;;;;;;5155142;27;20057;-82
2023/09/23 09:20:24;;;;;;;4.28;1.10;;;17.50;99.90;;;;;;5154606;27;20419;-81
2023/09/23 09:23:15;;;;;;;5.50;2.08;;;17.50;99.90;;;;;;5154426;27;20046;-80
2023/09/23 09:26:01;;;;;;;6.28;1.40;;;17.60;99.90;;;;;;5153869;27;20046;-75
2023/09/23 09:28:47;;;;;;;4.53;1.00;;;17.90;99.90;;;;;;5153296;27;20562;-78
2023/09/23 09:31:34;;;;;;;4.05;0.98;;;18.00;99.90;;;;;;5154084;27;20114;-76
2023/09/23 09:34:24;;;;;;;4.30;0.93;;;17.90;99.90;;;;;;5152563;27;20088;-77
2023/09/23 09:37:13;;;;;;;5.35;0.90;;;17.80;99.90;;;;;;5153376;27;20043;-77
2023/09/23 09:40:01;;;;;;;4.20;1.00;;;17.70;99.90;;;;;;5153797;27;20045;-74
2023/09/23 09:42:57;;;;;;;3.50;0.70;;;17.90;99.90;;;;;;5135389;27;20550;-73
2023/09/23 09:45:44;;;;;;;2.60;0.82;;;17.90;99.90;;;;;;5153185;27;20043;-76
2023/09/23 09:48:32;;;;;;;3.88;0.80;;;17.80;99.90;;;;;;5132841;27;20050;-77
2023/09/23 09:51:21;;;;;;;3.75;0.70;;;17.70;99.90;;;;;;5135487;27;20070;-77
2023/09/23 09:54:11;;;;;;;4.72;1.00;;;17.80;99.90;;;;;;5152136;27;20155;-74
2023/09/23 09:56:59;;;;;;;4.47;0.52;;;17.90;99.90;;;;;;5111002;27;20058;-79
2023/09/23 09:59:45;;;;;;;2.35;0.73;;;18.00;99.90;;;;;;5120826;27;20490;-78
2023/09/23 10:02:32;;;;;;;2.30;0.77;;;18.10;99.90;;;;;;5134821;27;20051;-79
2023/09/23 10:05:18;;;;;;;5.63;1.00;;;18.30;99.90;;;;;;5135547;27;20103;-76
2023/09/23 10:08:15;;;;;;;4.70;0.60;;;18.20;99.90;;;;;;5152101;27;20494;-76
2023/09/23 10:11:04;;;;;;;2.70;0.70;;;18.00;99.90;;;;;;5152327;27;20042;-78
2023/09/23 10:13:50;;;;;;;2.78;0.60;;;17.70;99.90;;;;;;5152538;27;20046;-77
2023/09/23 10:16:36;;;;;;;2.88;0.50;;;17.60;99.90;;;;;;5154023;27;20492;-76
2023/09/23 10:19:33;;;;;;;1.98;0.52;;;17.70;99.90;;;;;;5153802;27;20047;-75
2023/09/23 10:22:21;;;;;;;5.63;0.73;;;17.80;99.90;;;;;;5152885;27;20054;-78
2023/09/23 10:25:11;;;;;;;3.75;1.00;;;17.90;99.90;;;;;;5154120;27;20102;-80
2023/09/23 10:28:00;;;;;;;3.63;0.63;;;17.90;99.90;;;;;;5151841;27;20078;-78
2023/09/23 10:30:59;;;;;;;3.25;0.70;;;17.70;99.90;;;;;;5134216;27;20048;-75
2023/09/23 10:33:45;;;;;;;2.33;0.65;;;17.60;99.90;;;;;;5153090;27;20130;-80
2023/09/23 10:36:32;;;;;;;2.88;1.00;;;17.50;99.90;;;;;;5151782;27;20046;-79
2023/09/23 10:39:18;;;;;;;3.10;0.70;;;17.50;99.90;;;;;;5153851;27;20129;-82
2023/09/23 10:42:12;;;;;;;3.38;0.77;;;17.40;99.90;;;;;;5137744;27;20046;-77
2023/09/23 10:45:01;;;;;;;4.68;0.98;;;17.40;99.90;;;;;;5152421;27;20510;-83
2023/09/23 10:47:47;;;;;;;2.88;0.73;;;17.70;99.90;;;;;;5154049;27;20050;-75
2023/09/23 10:50:33;;;;;;;2.75;0.52;;;18.30;99.90;;;;;;5151330;27;20072;-74
2023/09/23 10:53:21;;;;;;;5.35;0.75;;;18.50;99.90;;;;;;5154337;27;20053;-76
2023/09/23 10:56:10;;;;;;;2.85;0.38;;;18.50;99.90;;;;;;5153331;27;20054;-74
2023/09/23 10:58:56;;;;;;;2.88;0.68;;;18.40;99.90;;;;;;5153134;27;20051;-75
2023/09/23 11:01:45;;;;;;;2.60;0.70;;;18.50;99.90;;;;;;5159105;27;20042;-78
2023/09/23 11:04:33;;;;;;;5.75;0.50;;;18.30;99.90;;;;;;5157837;27;20240;-74
2023/09/23 11:07:20;;;;;;;5.53;0.68;;;18.20;99.90;;;;;;5139053;27;20199;-76
2023/09/23 11:10:06;;;;;;;1.33;0.50;;;18.20;99.90;;;;;;5158299;27;20057;-74
2023/09/23 11:12:55;;;;;;;3.10;0.73;;;18.40;99.90;;;;;;5154108;27;20047;-77
2023/09/23 11:15:46;;;;;;;3.20;0.70;;;19.10;99.90;;;;;;5138236;27;20046;-77
2023/09/23 11:18:33;;;;;;;3.15;1.00;;;19.80;99.90;;;;;;5152136;27;20043;-74
2023/09/23 11:21:20;;;;;;;3.47;0.40;;;20.50;99.90;;;;;;5152481;27;20054;-78
2023/09/23 11:24:07;;;;;;;2.75;0.57;;;20.60;99.90;;;;;;5133934;27;20058;-74
2023/09/23 11:26:53;;;;;;;3.70;0.60;;;20.80;99.90;;;;;;5152769;27;20080;-80
2023/09/23 11:29:39;;;;;;;8.73;2.35;;;21.20;99.90;;;;;;5152386;27;20142;-74
2023/09/23 11:32:26;;;;;;;4.65;0.50;;;21.00;99.90;;;;;;5151761;27;20047;-75
2023/09/23 11:35:13;;;;;;;3.20;0.82;;;20.70;99.90;;;;;;5137112;27;20046;-75
2023/09/23 11:37:59;;;;;;;4.15;1.02;;;21.00;99.90;;;;;;5151500;27;20047;-73
2023/09/23 11:40:46;;;;;;;4.47;1.02;;;21.20;99.90;;;;;;5152590;27;20054;-79
2023/09/23 11:43:32;;;;;;;3.60;0.70;;;21.30;99.90;;;;;;5151327;27;20054;-77
2023/09/23 11:46:20;;;;;;;1.75;0.40;;;21.90;99.90;;;;;;5151184;27;20043;-74
2023/09/23 11:49:07;;;;;;;6.75;1.00;;;22.40;99.90;;;;;;5132868;27;20512;-79
2023/09/23 11:51:53;;;;;;;2.85;0.60;;;22.10;99.90;;;;;;5133529;27;20051;-76
2023/09/23 11:54:40;;;;;;;3.72;0.63;;;22.70;99.90;;;;;;5150586;27;20141;-76
2023/09/23 11:57:26;;;;;;;4.20;0.85;;;22.90;99.10;;;;;;5151177;27;20130;-80
2023/09/23 12:00:13;;;;;;;2.63;0.57;;;23.50;99.20;;;;;;5151478;27;20581;-78
2023/09/23 12:02:59;;;;;;;2.58;0.93;;;24.00;98.00;;;;;;5132039;27;20557;-78
2023/09/23 12:05:46;;;;;;;2.90;0.50;;;24.50;97.80;;;;;;5150793;27;20043;-75
2023/09/23 12:08:32;;;;;;;1.90;0.45;;;24.80;97.30;;;;;;5151897;27;20091;-79
2023/09/23 12:11:21;;;;;;;4.57;0.70;;;24.70;96.30;;;;;;5136547;27;20043;-75
2023/09/23 12:14:09;;;;;;;4.05;1.10;;;25.00;96.20;;;;;;5132778;27;20136;-75
2023/09/23 12:16:55;;;;;;;3.67;0.77;;;25.20;95.20;;;;;;5132874;27;20078;-76
2023/09/23 12:19:44;;;;;;;5.28;0.70;;;25.20;94.80;;;;;;5133148;27;20054;-75
2023/09/23 12:22:30;;;;;;;3.92;0.70;;;25.50;94.90;;;;;;5118203;27;20159;-78
2023/09/23 12:25:17;;;;;;;5.63;1.00;;;25.90;94.80;;;;;;5132072;27;20090;-78
2023/09/23 12:28:04;;;;;;;3.55;0.80;;;26.00;93.60;;;;;;5151331;27;20042;-83
2023/09/23 12:30:50;;;;;;;4.55;1.58;;;26.60;93.00;;;;;;5132960;27;20050;-82
2023/09/23 12:33:36;;;;;;;2.13;0.50;;;26.60;92.60;;;;;;5132018;27;20393;-79
2023/09/23 12:36:22;;;;;;;3.13;0.80;;;26.60;92.10;;;;;;5150716;27;20089;-76
2023/09/23 12:39:08;;;;;;;2.13;0.40;;;26.70;92.00;;;;;;5151502;27;20051;-80
2023/09/23 12:41:54;;;;;;;2.70;0.52;;;26.00;91.60;;;;;;5150850;27;20047;-83
2023/09/23 12:44:41;;;;;;;3.38;0.70;;;25.30;92.20;;;;;;5151985;27;20054;-80
2023/09/23 12:47:27;;;;;;;2.55;0.50;;;25.40;92.80;;;;;;5152749;27;20049;-83
2023/09/23 12:50:14;;;;;;;1.42;0.30;;;25.50;91.90;;;;;;5134132;27;20058;-74
2023/09/23 12:53:00;;;;;;;3.72;0.65;;;25.10;92.20;;;;;;5131795;27;20571;-74
2023/09/23 12:55:46;;;;;;;1.48;0.40;;;24.90;92.80;;;;;;5149808;27;20494;-74
2023/09/23 12:58:33;;;;;;;2.90;0.50;;;26.00;92.40;;;;;;5150666;27;20085;-76
2023/09/23 13:01:19;;;;;;;2.58;0.45;;;27.10;90.80;;;;;;5150504;27;20161;-74
2023/09/23 13:04:05;;;;;;;2.33;0.50;;;27.70;90.00;;;;;;5151720;27;20046;-76
2023/09/23 13:06:52;;;;;;;2.65;0.63;;;28.10;87.10;;;;;;5140288;27;20055;-77
2023/09/23 13:09:38;;;;;;;3.65;0.50;;;28.80;86.00;;;;;;5161724;27;20089;-76
2023/09/23 13:12:24;;;;;;;2.47;0.85;;;29.20;84.80;;;;;;5137848;27;20137;-81
2023/09/23 13:15:10;;;;;;;2.55;0.32;;;29.40;83.60;;;;;;5158488;27;20042;-83
2023/09/23 13:17:56;;;;;;;4.07;0.70;;;28.00;83.20;;;;;;5156146;27;20440;-80
2023/09/23 13:20:43;;;;;;;5.10;0.80;;;26.40;87.60;;;;;;5128989;27;20045;-76
2023/09/23 13:23:29;;;;;;;2.72;0.80;;;26.70;92.00;;;;;;5155622;27;20050;-76
2023/09/23 13:26:15;;;;;;;2.78;0.32;;;27.60;91.20;;;;;;5154610;27;20062;-75
2023/09/23 13:29:01;;;;;;;2.35;0.40;;;28.40;90.00;;;;;;5155984;27;20043;-81
2023/09/23 13:31:47;;;;;;;2.25;0.50;;;29.50;88.00;;;;;;5134997;27;20050;-82
2023/09/23 13:34:33;;;;;;;1.65;0.35;;;30.30;82.60;;;;;;5153571;27;20089;-82
2023/09/23 13:37:19;;;;;;;2.55;0.45;;;30.90;80.50;;;;;;5153851;27;20051;-80
2023/09/23 13:40:07;;;;;;;1.90;0.35;;;30.40;79.10;;;;;;5154582;27;20043;-79
2023/09/23 13:42:53;;;;;;;1.67;0.43;;;29.30;80.20;;;;;;5154248;27;20134;-84
2023/09/23 13:45:39;;;;;;;1.80;0.30;;;27.80;82.10;;;;;;5134027;27;20103;-76
2023/09/23 13:48:25;;;;;;;2.92;0.50;;;27.20;83.60;;;;;;5156655;27;20051;-80
2023/09/23 13:51:11;;;;;;;3.10;0.55;;;28.30;82.00;;;;;;5135272;27;20046;-82
2023/09/23 13:53:58;;;;;;;3.88;0.70;;;29.10;79.10;;;;;;5156131;27;20412;-80
2023/09/23 13:56:44;;;;;;;1.52;0.40;;;29.30;78.00;;;;;;5154632;27;20066;-83
2023/09/23 13:59:30;;;;;;;4.07;0.45;;;29.80;77.50;;;;;;5135117;27;20073;-79
2023/09/23 14:02:18;;;;;;;3.95;0.95;;;30.50;76.90;;;;;;5114781;27;20047;-84
2023/09/23 14:05:04;;;;;;;3.58;0.50;;;30.50;75.00;;;;;;5120247;27;20051;-77
2023/09/23 14:07:50;;;;;;;2.67;0.60;;;29.00;74.30;;;;;;5100174;27;20055;-81
2023/09/23 14:10:37;;;;;;;2.63;0.60;;;28.20;77.60;;;;;;5133245;27;20055;-77
2023/09/23 14:13:23;;;;;;;5.10;0.75;;;29.20;77.30;;;;;;5119395;27;20051;-78
2023/09/23 14:16:10;;;;;;;3.22;0.35;;;29.50;76.90;;;;;;5116743;27;20051;-83
2023/09/23 14:18:56;;;;;;;2.75;1.00;;;30.40;75.20;;;;;;5135062;27;20039;-81
2023/09/23 14:21:42;;;;;;;4.78;0.73;;;30.90;73.70;;;;;;5127591;27;20054;-77
2023/09/23 14:24:29;;;;;;;1.52;0.40;;;31.10;70.90;;;;;;5101837;27;20063;-80
2023/09/23 14:27:15;;;;;;;1.92;0.63;;;30.20;68.70;;;;;;5134695;27;20115;-76
2023/09/23 14:30:03;;;;;;;2.97;0.47;;;30.20;70.40;;;;;;5101154;27;20055;-77